createdAt,value
2024-03-11T00:01:09.308Z,13.80
2024-03-11T00:03:45.950Z,12.10
2024-03-11T00:06:16.932Z,12.30
2024-03-11T00:09:21.121Z,12.30
2024-03-11T00:12:15.955Z,10.60
2024-03-11T00:15:08.318Z,11.90
2024-03-11T00:17:59.535Z,12.20
2024-03-11T00:20:28.045Z,20.70
2024-03-11T00:23:02.325Z,17.50
2024-03-11T00:25:34.214Z,14.30
2024-03-11T00:28:13.252Z,14.30
2024-03-11T00:30:42.118Z,13.70
2024-03-11T00:33:29.556Z,16.00
2024-03-11T00:36:17.986Z,17.50
2024-03-11T00:38:51.158Z,17.70
2024-03-11T00:41:39.660Z,17.90
2024-03-11T00:44:13.333Z,20.80
2024-03-11T00:46:47.183Z,22.40
2024-03-11T00:49:20.868Z,17.00
2024-03-11T00:51:50.146Z,19.10
2024-03-11T00:54:23.257Z,19.20
2024-03-11T00:57:36.598Z,18.00
2024-03-11T01:00:29.423Z,17.10
2024-03-11T01:03:02.332Z,15.40
2024-03-11T01:05:40.628Z,18.80
2024-03-11T01:08:35.322Z,15.90
2024-03-11T01:11:29.180Z,16.10
2024-03-11T01:14:20.642Z,15.70
2024-03-11T01:17:34.922Z,15.40
2024-03-11T01:20:30.539Z,14.00
2024-03-11T01:22:59.180Z,14.70
2024-03-11T01:25:27.628Z,14.00
2024-03-11T01:27:56.085Z,17.50
2024-03-11T01:30:25.651Z,18.40
2024-03-11T01:32:54.182Z,15.00
2024-03-11T01:35:26.473Z,13.70
2024-03-11T01:37:54.807Z,15.30
2024-03-11T01:40:23.331Z,13.90
2024-03-11T01:42:51.916Z,14.70
2024-03-11T01:45:20.240Z,15.70
2024-03-11T01:47:49.192Z,15.50
2024-03-11T01:50:18.470Z,16.00
2024-03-11T01:52:57.531Z,15.30
2024-03-11T01:55:26.731Z,18.40
2024-03-11T01:57:56.698Z,13.50
2024-03-11T02:00:25.211Z,17.10
2024-03-11T02:02:55.959Z,15.20
2024-03-11T02:05:27.453Z,15.20
2024-03-11T02:08:00.820Z,11.60
2024-03-11T02:13:00.521Z,11.20
2024-03-11T02:16:09.664Z,14.00
2024-03-11T02:18:40.895Z,14.20
2024-03-11T02:21:14.042Z,15.60
2024-03-11T02:23:49.686Z,13.20
2024-03-11T02:26:35.901Z,12.70
2024-03-11T02:29:07.156Z,13.10
2024-03-11T02:31:58.133Z,15.00
2024-03-11T02:34:32.981Z,14.20
2024-03-11T02:37:15.698Z,14.60
2024-03-11T02:40:40.332Z,16.40
2024-03-11T02:43:11.497Z,13.00
2024-03-11T02:45:43.107Z,17.20
2024-03-11T02:48:12.364Z,15.50
2024-03-11T02:50:53.071Z,13.10
2024-03-11T02:53:25.033Z,14.90
2024-03-11T02:55:57.122Z,13.70
2024-03-11T02:58:25.435Z,13.30
2024-03-11T03:00:57.501Z,14.10
2024-03-11T03:03:33.947Z,13.00
2024-03-11T03:06:02.656Z,12.10
2024-03-11T03:08:31.125Z,12.20
2024-03-11T03:11:04.186Z,13.00
2024-03-11T03:13:32.404Z,13.70
2024-03-11T03:16:03.905Z,12.30
2024-03-11T03:18:32.394Z,11.10
2024-03-11T03:21:23.188Z,13.20
2024-03-11T03:23:57.093Z,10.30
2024-03-11T03:26:30.934Z,12.30
2024-03-11T03:29:05.234Z,11.00
2024-03-11T03:31:38.142Z,13.80
2024-03-11T03:34:12.061Z,10.90
2024-03-11T03:36:40.536Z,9.40
2024-03-11T03:39:09.519Z,10.40
2024-03-11T03:41:37.858Z,12.10
2024-03-11T03:44:08.422Z,9.80
2024-03-11T03:46:57.155Z,10.60
2024-03-11T03:49:25.502Z,9.70
2024-03-11T03:51:54.165Z,11.20
2024-03-11T03:54:32.605Z,10.80
2024-03-11T03:57:00.776Z,10.70
2024-03-11T03:59:29.633Z,10.20
2024-03-11T04:02:02.946Z,10.10
2024-03-11T04:04:33.602Z,11.90
2024-03-11T04:07:02.123Z,9.80
2024-03-11T04:09:36.430Z,10.30
2024-03-11T04:12:08.103Z,9.80
2024-03-11T04:14:59.804Z,10.80
2024-03-11T04:17:46.290Z,9.30
2024-03-11T04:20:24.604Z,9.80
2024-03-11T04:23:28.864Z,13.90
2024-03-11T04:26:01.394Z,11.00
2024-03-11T04:28:34.822Z,10.90
2024-03-11T04:31:16.833Z,10.70
2024-03-11T04:34:12.095Z,10.20
2024-03-11T04:36:43.807Z,11.90
2024-03-11T04:39:17.454Z,9.20
2024-03-11T04:42:09.099Z,8.50
2024-03-11T04:44:46.855Z,11.20
2024-03-11T04:47:27.519Z,9.90
2024-03-11T04:50:45.401Z,11.20
2024-03-11T04:53:42.302Z,10.70
2024-03-11T04:56:10.761Z,11.80
2024-03-11T04:58:41.363Z,10.80
2024-03-11T05:01:19.680Z,10.40
2024-03-11T05:03:48.132Z,10.30
2024-03-11T05:06:40.386Z,10.50
2024-03-11T05:09:28.704Z,10.40
2024-03-11T05:12:02.495Z,10.20
2024-03-11T05:14:31.104Z,10.70
2024-03-11T05:17:04.365Z,11.20
2024-03-11T05:19:40.941Z,11.30
2024-03-11T05:22:34.948Z,13.80
2024-03-11T05:25:23.709Z,13.60
2024-03-11T05:28:27.542Z,12.10
2024-03-11T05:31:00.946Z,12.30
2024-03-11T05:34:18.675Z,10.60
2024-03-11T05:37:24.939Z,12.60
2024-03-11T05:40:12.705Z,11.10
2024-03-11T05:43:09.628Z,10.90
2024-03-11T05:45:43.675Z,12.00
2024-03-11T05:48:19.948Z,12.70
2024-03-11T05:51:16.101Z,10.60
2024-03-11T05:54:01.722Z,14.00
2024-03-11T05:56:54.462Z,13.20
2024-03-11T05:59:28.873Z,12.30
2024-03-11T06:02:00.272Z,10.70
2024-03-11T06:05:06.565Z,11.40
2024-03-11T06:07:45.687Z,11.90
2024-03-11T06:10:22.926Z,12.50
2024-03-11T06:18:11.573Z,12.50
2024-03-11T06:20:40.317Z,11.90
2024-03-11T06:23:08.969Z,12.10
2024-03-11T06:25:37.343Z,13.00
2024-03-11T06:28:06.382Z,13.80
2024-03-11T06:30:35.335Z,13.40
2024-03-11T06:33:05.875Z,12.30
2024-03-11T06:35:39.395Z,13.50
2024-03-11T06:38:08.029Z,12.80
2024-03-11T06:40:36.588Z,12.10
2024-03-11T06:43:04.990Z,12.90
2024-03-11T06:45:33.305Z,16.20
2024-03-11T06:48:01.701Z,13.70
2024-03-11T06:50:30.106Z,12.10
2024-03-11T06:52:58.502Z,13.00
2024-03-11T06:55:26.712Z,12.40
2024-03-11T06:57:54.999Z,14.20
2024-03-11T07:00:26.346Z,15.00
2024-03-11T07:02:57.550Z,14.30
2024-03-11T07:05:28.972Z,13.70
2024-03-11T07:07:58.074Z,13.90
2024-03-11T07:10:26.784Z,13.30
2024-03-11T07:12:55.113Z,12.60
2024-03-11T07:15:26.340Z,13.60
2024-03-11T07:17:54.560Z,13.80
2024-03-11T07:20:25.199Z,14.90
2024-03-11T07:22:53.998Z,15.00
2024-03-11T07:25:22.872Z,13.80
2024-03-11T07:27:56.729Z,14.30
2024-03-11T07:30:25.628Z,12.20
2024-03-11T07:33:27.630Z,15.20
2024-03-11T07:35:58.794Z,13.70
2024-03-11T07:38:30.262Z,12.40
2024-03-11T07:41:01.616Z,14.30
2024-03-11T07:43:30.057Z,14.40
2024-03-11T07:45:58.559Z,13.40
2024-03-11T07:48:29.393Z,13.90
2024-03-11T07:51:00.056Z,12.30
2024-03-11T07:53:28.524Z,11.80
2024-03-11T07:55:58.899Z,14.10
2024-03-11T07:58:30.870Z,13.90
2024-03-11T08:01:00.325Z,13.00
2024-03-11T08:03:28.914Z,14.00
2024-03-11T08:06:02.196Z,14.70
2024-03-11T08:10:59.287Z,13.70
2024-03-11T08:13:27.625Z,12.10
2024-03-11T08:15:56.664Z,11.90
2024-03-11T08:18:28.163Z,12.50
2024-03-11T08:20:59.238Z,12.70
2024-03-11T08:23:27.778Z,11.30
2024-03-11T08:26:18.425Z,15.90
2024-03-11T08:28:52.702Z,15.10
2024-03-11T08:31:22.162Z,14.10
2024-03-11T08:33:50.722Z,13.70
2024-03-11T08:36:19.260Z,14.40
2024-03-11T08:38:58.709Z,12.20
2024-03-11T08:41:29.934Z,17.00
2024-03-11T08:44:03.970Z,14.60
2024-03-11T08:46:33.394Z,14.40
2024-03-11T08:49:02.106Z,16.40
2024-03-11T08:51:30.525Z,17.10
2024-03-11T08:54:01.259Z,14.90
2024-03-11T08:56:29.567Z,15.20
2024-03-11T08:58:58.971Z,13.30
2024-03-11T09:01:30.744Z,13.60
2024-03-11T09:03:59.204Z,15.50
2024-03-11T09:06:28.073Z,17.30
2024-03-11T09:08:58.021Z,16.30
2024-03-11T09:11:28.079Z,17.60
2024-03-11T09:13:58.659Z,14.40
2024-03-11T09:16:29.098Z,15.70
2024-03-11T09:18:57.784Z,16.40
2024-03-11T09:21:27.339Z,13.90
2024-03-11T09:23:55.716Z,14.60
2024-03-11T09:26:24.946Z,14.90
2024-03-11T09:28:56.134Z,16.50
2024-03-11T09:31:27.494Z,15.90
2024-03-11T09:33:56.729Z,16.90
2024-03-11T09:36:25.331Z,15.70
2024-03-11T09:39:03.613Z,20.80
2024-03-11T09:42:01.725Z,13.80
2024-03-11T09:45:13.697Z,14.10
2024-03-11T09:47:54.026Z,13.00
2024-03-11T09:50:32.500Z,16.20
2024-03-11T09:53:15.435Z,13.80
2024-03-11T09:55:49.497Z,18.30
2024-03-11T09:58:21.958Z,15.50
2024-03-11T10:00:57.493Z,15.50
2024-03-11T10:03:47.330Z,14.70
2024-03-11T10:06:17.002Z,18.80
2024-03-11T10:08:46.785Z,17.00
2024-03-11T10:11:19.359Z,17.50
2024-03-11T10:13:54.541Z,14.10
2024-03-11T10:16:26.669Z,17.90
2024-03-11T10:19:04.382Z,15.10
2024-03-11T10:21:36.300Z,14.60
2024-03-11T10:24:06.977Z,14.80
2024-03-11T10:26:41.938Z,15.20
2024-03-11T10:29:13.402Z,15.00
2024-03-11T10:31:46.787Z,18.30
2024-03-11T10:34:25.704Z,13.90
2024-03-11T10:37:01.947Z,13.30
2024-03-11T10:39:42.696Z,13.50
2024-03-11T10:42:16.882Z,17.40
2024-03-11T10:44:49.266Z,12.90
2024-03-11T10:47:23.699Z,14.70
2024-03-11T10:50:16.044Z,13.20
2024-03-11T10:52:49.924Z,13.50
2024-03-11T10:55:23.254Z,13.30
2024-03-11T10:57:57.774Z,12.50
2024-03-11T11:00:27.778Z,14.00
2024-03-11T11:03:09.398Z,12.20
2024-03-11T11:06:02.397Z,11.90
2024-03-11T11:08:33.989Z,13.20
2024-03-11T11:11:05.868Z,12.70
2024-03-11T11:14:15.263Z,12.70
2024-03-11T11:16:46.489Z,12.60
2024-03-11T11:19:23.812Z,13.90
2024-03-11T11:21:54.700Z,11.90
2024-03-11T11:24:32.572Z,11.60
2024-03-11T11:27:07.770Z,12.30
2024-03-11T11:30:18.394Z,12.40
2024-03-11T11:32:50.783Z,10.60
2024-03-11T11:35:37.170Z,12.60
2024-03-11T11:38:29.183Z,11.20
2024-03-11T11:40:59.700Z,10.00
2024-03-11T11:43:47.541Z,11.40
2024-03-11T11:46:53.058Z,11.30
2024-03-11T11:49:25.519Z,11.80
2024-03-11T11:51:53.970Z,10.60
2024-03-11T11:54:35.626Z,12.90
2024-03-11T11:57:17.796Z,14.00
2024-03-11T12:00:03.154Z,10.70
2024-03-11T12:02:37.231Z,13.80
2024-03-11T12:05:10.280Z,11.90
2024-03-11T12:10:12.425Z,9.70
2024-03-11T12:12:49.960Z,12.00
2024-03-11T12:15:21.453Z,11.50
2024-03-11T12:17:55.956Z,11.50
2024-03-11T12:20:33.292Z,11.50
2024-03-11T12:23:03.534Z,12.60
2024-03-11T12:25:34.153Z,12.00
2024-03-11T12:28:08.754Z,11.20
2024-03-11T12:30:40.420Z,12.10
2024-03-11T12:33:15.807Z,10.30
2024-03-11T12:35:46.341Z,13.60
2024-03-11T12:38:15.797Z,11.90
2024-03-11T12:40:46.233Z,10.10
2024-03-11T12:43:21.600Z,13.20
2024-03-11T12:45:54.896Z,11.30
2024-03-11T12:48:25.344Z,14.40
2024-03-11T12:50:58.013Z,10.30
2024-03-11T12:53:29.044Z,11.10
2024-03-11T12:56:08.169Z,12.40
2024-03-11T13:01:36.736Z,10.90
2024-03-11T13:04:25.082Z,11.40
2024-03-11T13:06:59.693Z,11.20
2024-03-11T13:09:37.059Z,11.60
2024-03-11T13:12:30.025Z,12.50
2024-03-11T13:14:59.411Z,8.20
2024-03-11T13:17:33.836Z,10.40
2024-03-11T13:20:07.520Z,9.70
2024-03-11T13:22:37.570Z,11.20
2024-03-11T13:25:11.468Z,10.40
2024-03-11T13:28:07.566Z,10.00
2024-03-11T13:30:49.103Z,8.80
2024-03-11T13:33:22.375Z,9.20
2024-03-11T13:35:54.793Z,11.00
2024-03-11T13:38:23.522Z,9.20
2024-03-11T13:40:55.096Z,9.70
2024-03-11T13:43:24.846Z,9.00
2024-03-11T13:45:55.542Z,8.90
2024-03-11T13:48:26.957Z,9.40
2024-03-11T13:51:00.281Z,9.50
2024-03-11T13:53:29.893Z,9.10
2024-03-11T13:56:01.704Z,9.20
2024-03-11T13:58:31.335Z,10.60
2024-03-11T14:01:00.012Z,11.00
2024-03-11T14:03:29.330Z,11.50
2024-03-11T14:05:58.558Z,11.40
2024-03-11T14:08:28.415Z,11.90
2024-03-11T14:10:57.879Z,10.30
2024-03-11T14:13:26.275Z,10.90
2024-03-11T14:15:55.816Z,10.50
2024-03-11T14:18:25.832Z,9.30
2024-03-11T14:20:54.453Z,11.20
2024-03-11T14:23:23.010Z,9.90
2024-03-11T14:25:53.059Z,10.00
2024-03-11T14:28:21.699Z,10.60
2024-03-11T14:30:49.934Z,9.00
2024-03-11T14:33:18.188Z,13.90
2024-03-11T14:35:47.931Z,10.80
2024-03-11T14:38:16.425Z,10.90
2024-03-11T14:40:45.826Z,8.60
2024-03-11T14:43:14.945Z,9.00
2024-03-11T14:45:45.825Z,9.70
2024-03-11T14:48:16.009Z,12.50
2024-03-11T14:50:47.302Z,10.00
2024-03-11T14:53:16.086Z,10.00
2024-03-11T14:55:47.066Z,11.40
2024-03-11T14:58:20.684Z,11.40
2024-03-11T15:00:55.893Z,11.40
2024-03-11T15:03:28.224Z,11.60
2024-03-11T15:06:00.425Z,10.00
2024-03-11T15:08:29.946Z,10.10
2024-03-11T15:10:58.450Z,10.50
2024-03-11T15:13:29.002Z,11.00
2024-03-11T15:15:58.213Z,9.90
2024-03-11T15:18:28.305Z,11.80
2024-03-11T15:20:57.515Z,11.20
2024-03-11T15:23:30.038Z,12.10
2024-03-11T15:25:58.409Z,12.20
2024-03-11T15:28:27.088Z,10.20
2024-03-11T15:30:56.645Z,10.90
2024-03-11T15:33:25.556Z,10.80
2024-03-11T15:35:54.310Z,11.60
2024-03-11T15:38:23.157Z,9.90
2024-03-11T15:40:52.109Z,10.10
2024-03-11T15:43:21.211Z,10.50
2024-03-11T15:45:50.943Z,10.70
2024-03-11T15:48:20.200Z,11.70
2024-03-11T15:50:50.533Z,12.50
2024-03-11T15:53:19.330Z,10.60
2024-03-11T15:55:48.361Z,8.80
2024-03-11T15:58:16.925Z,10.10
2024-03-11T16:00:46.156Z,10.80
2024-03-11T16:03:15.745Z,8.40
2024-03-11T16:05:46.265Z,9.00
2024-03-11T16:08:17.205Z,12.00
2024-03-11T16:10:47.615Z,11.30
2024-03-11T16:13:16.178Z,10.00
2024-03-11T16:15:44.960Z,12.10
2024-03-11T16:18:14.426Z,9.90
2024-03-11T16:20:43.671Z,9.50
2024-03-11T16:23:15.196Z,16.40
2024-03-11T16:25:45.680Z,16.50
2024-03-11T16:28:21.876Z,12.00
2024-03-11T16:30:50.429Z,10.00
2024-03-11T16:33:26.552Z,10.50
2024-03-11T16:35:56.087Z,11.30
2024-03-11T16:38:24.884Z,12.70
2024-03-11T16:40:53.351Z,14.40
2024-03-11T16:43:21.748Z,10.70
2024-03-11T16:45:53.717Z,15.00
2024-03-11T16:48:26.998Z,14.60
2024-03-11T16:53:25.426Z,12.10
2024-03-11T16:55:55.400Z,13.10
2024-03-11T16:58:27.227Z,18.60
2024-03-11T17:00:56.599Z,16.80
2024-03-11T17:03:25.488Z,15.60
2024-03-11T17:05:56.906Z,17.80
2024-03-11T17:08:28.937Z,14.00
2024-03-11T17:11:02.100Z,11.40
2024-03-11T17:13:34.820Z,12.70
2024-03-11T17:16:09.507Z,17.10
2024-03-11T17:18:41.997Z,14.00
2024-03-11T17:21:33.315Z,16.10
2024-03-11T17:24:06.454Z,14.20
2024-03-11T17:26:34.995Z,14.50
2024-03-11T17:29:08.245Z,14.20
2024-03-11T17:31:58.707Z,12.60
2024-03-11T17:34:29.452Z,13.10
2024-03-11T17:37:15.864Z,14.60
2024-03-11T17:39:44.798Z,14.20
2024-03-11T17:42:19.272Z,14.60
2024-03-11T17:44:52.822Z,14.30
2024-03-11T17:47:41.773Z,16.00
2024-03-11T17:50:14.752Z,14.00
2024-03-11T17:52:49.238Z,15.10
2024-03-11T17:55:21.350Z,13.30
2024-03-11T17:57:51.895Z,13.70
2024-03-11T18:00:25.889Z,15.40
2024-03-11T18:02:57.145Z,13.80
2024-03-11T18:05:33.328Z,13.40
2024-03-11T18:08:05.203Z,14.30
2024-03-11T18:10:35.357Z,16.20
2024-03-11T18:13:11.862Z,16.00
2024-03-11T18:15:43.858Z,14.40
2024-03-11T18:18:14.568Z,16.80
2024-03-11T18:20:43.266Z,15.40
2024-03-11T18:23:14.896Z,16.50
2024-03-11T18:25:52.071Z,14.80
2024-03-11T18:28:23.410Z,14.70
2024-03-11T18:30:52.180Z,14.50
2024-03-11T18:33:21.237Z,14.40
2024-03-11T18:35:49.962Z,15.50
2024-03-11T18:38:18.535Z,16.60
2024-03-11T18:40:48.478Z,14.00
2024-03-11T18:43:17.630Z,15.00
2024-03-11T18:45:47.785Z,14.80
2024-03-11T18:48:16.710Z,15.40
2024-03-11T18:50:45.669Z,14.70
2024-03-11T18:53:14.986Z,15.60
2024-03-11T18:55:43.895Z,14.50
2024-03-11T18:58:15.309Z,15.10
2024-03-11T19:00:43.825Z,14.90
2024-03-11T19:03:16.303Z,17.40
2024-03-11T19:05:45.053Z,15.00
2024-03-11T19:08:13.440Z,16.00
2024-03-11T19:10:41.967Z,13.10
2024-03-11T19:13:10.361Z,15.80
2024-03-11T19:15:41.866Z,15.10
2024-03-11T19:18:10.516Z,14.40
2024-03-11T19:20:41.068Z,15.00
2024-03-11T19:23:11.830Z,15.30
2024-03-11T19:25:43.951Z,15.80
2024-03-11T19:28:13.724Z,20.60
2024-03-11T19:31:00.672Z,18.30
2024-03-11T19:33:33.437Z,14.10
2024-03-11T19:36:02.034Z,16.90
2024-03-11T19:38:58.122Z,16.50
2024-03-11T19:41:58.324Z,13.20
2024-03-11T19:45:02.165Z,14.50
2024-03-11T19:48:11.059Z,16.10
2024-03-11T19:51:19.205Z,13.70
2024-03-11T19:54:19.411Z,16.10
2024-03-11T19:57:19.593Z,17.20
2024-03-11T20:00:27.303Z,12.70
2024-03-11T20:03:22.385Z,14.20
2024-03-11T20:06:30.207Z,11.00
2024-03-11T20:09:50.313Z,14.80
2024-03-11T20:12:56.739Z,12.50
2024-03-11T20:15:50.141Z,13.30
2024-03-11T20:18:43.127Z,13.80
2024-03-11T20:21:51.517Z,17.30
2024-03-11T20:24:52.636Z,12.80
2024-03-11T20:27:42.440Z,12.20
2024-03-11T20:30:20.135Z,14.20
2024-03-11T20:33:04.033Z,11.70
2024-03-11T20:35:33.463Z,12.90
2024-03-11T20:38:04.428Z,11.10
2024-03-11T20:40:38.204Z,13.80
2024-03-11T20:43:10.568Z,11.70
2024-03-11T20:45:41.610Z,12.30
2024-03-11T20:48:13.511Z,13.30
2024-03-11T20:50:50.830Z,16.40
2024-03-11T20:53:21.554Z,11.90
2024-03-11T20:55:50.074Z,14.70
2024-03-11T20:58:21.570Z,11.80
2024-03-11T21:00:50.184Z,16.10
2024-03-11T21:03:18.698Z,14.20
2024-03-11T21:05:51.339Z,16.40
2024-03-11T21:08:22.969Z,10.40
2024-03-11T21:10:51.297Z,12.00
2024-03-11T21:13:19.729Z,13.00
2024-03-11T21:15:48.012Z,12.20
2024-03-11T21:18:21.189Z,12.00
2024-03-11T21:23:42.589Z,11.60
2024-03-11T21:26:22.308Z,12.10
2024-03-11T21:28:50.397Z,11.90
2024-03-11T21:31:18.721Z,12.00
2024-03-11T21:33:46.954Z,12.70
2024-03-11T21:36:15.353Z,13.40
2024-03-11T21:38:45.025Z,12.60
2024-03-11T21:41:13.105Z,11.40
2024-03-11T21:43:41.210Z,12.50
2024-03-11T21:46:10.559Z,14.10
2024-03-11T21:48:38.865Z,11.30
2024-03-11T21:51:07.159Z,12.50
2024-03-11T21:53:36.743Z,10.90
2024-03-11T21:56:07.449Z,13.10
2024-03-11T21:58:35.655Z,12.10
2024-03-11T22:01:06.057Z,12.50
2024-03-11T22:03:34.256Z,10.80
2024-03-11T22:06:02.744Z,12.30
2024-03-11T22:08:30.930Z,13.10
2024-03-11T22:10:58.996Z,11.00
2024-03-11T22:13:27.540Z,11.40
2024-03-11T22:15:55.739Z,11.10
2024-03-11T22:18:25.010Z,11.10
2024-03-11T22:20:54.005Z,10.40
2024-03-11T22:23:22.517Z,9.10
2024-03-11T22:25:50.725Z,14.30
2024-03-11T22:28:19.264Z,10.80
2024-03-11T22:30:47.376Z,15.20
2024-03-11T22:33:15.634Z,11.60
2024-03-11T22:35:45.224Z,11.10
2024-03-11T22:38:13.374Z,10.70
2024-03-11T22:40:42.740Z,13.20
2024-03-11T22:43:11.632Z,10.20
2024-03-11T22:45:40.586Z,10.70
2024-03-11T22:48:10.099Z,9.60
2024-03-11T22:50:38.154Z,10.20
2024-03-11T22:53:06.160Z,9.20
2024-03-11T22:55:34.172Z,10.90
2024-03-11T22:58:02.308Z,9.40
2024-03-11T23:00:50.418Z,9.10
2024-03-11T23:03:21.625Z,9.40
2024-03-11T23:05:50.848Z,9.80
2024-03-11T23:08:22.136Z,9.20
2024-03-11T23:10:50.745Z,7.90
2024-03-11T23:13:19.697Z,9.40
2024-03-11T23:15:47.821Z,9.30
2024-03-11T23:18:17.561Z,7.80
2024-03-11T23:20:47.344Z,9.90
2024-03-11T23:23:15.784Z,8.30
2024-03-11T23:25:43.877Z,11.00
2024-03-11T23:28:11.926Z,9.60
2024-03-11T23:30:42.096Z,9.50
2024-03-11T23:33:10.387Z,9.80
2024-03-11T23:35:38.457Z,8.20
2024-03-11T23:38:08.514Z,8.70
2024-03-11T23:40:37.774Z,7.90
2024-03-11T23:43:06.709Z,9.30
2024-03-11T23:45:40.072Z,10.10
2024-03-11T23:48:16.605Z,8.60
2024-03-11T23:50:46.043Z,9.30
2024-03-11T23:53:14.735Z,8.50
2024-03-11T23:55:43.521Z,8.80
2024-03-11T23:58:13.554Z,8.30
